Overview Statistics Trail Chart Weather Telemetry Raw packets
 

This is the latest recevied weather packets stored in our database for station/object S51UL-6. If no packets are shown the sender has not sent any weather packets the latest 10 day(s).

<< 18 19 20 21 22 23 24 >>
Time Temp. Humidity Pressure Rain* Wind** Luminosity Snow
1788528947 33.89° C 37% 1018 hPa 0.51 mm - - -
1788528646 33.89° C 37% 1018.1 hPa 1.02 mm - - -
1788528348 33.89° C 38% 1018.1 hPa 1.02 mm - - -
1788528048 33.89° C 38% 1018.3 hPa 1.52 mm - - -
1788527754 33.33° C 38% 1018.3 hPa 1.02 mm - - -
1788527447 33.33° C 36% 1018.3 hPa 1.02 mm - - -
1788527147 33.33° C 38% 1018.4 hPa 1.02 mm - - -
1788526847 33.33° C 38% 1018.4 hPa 1.52 mm - - -
1788526547 33.33° C 36% 1018.5 hPa 2.54 mm - - -
1788525947 33.33° C 38% 1018.7 hPa 7.11 mm - - -
1788525647 33.89° C 38% 1018.9 hPa 13.97 mm - - -
1788525348 33.89° C 38% 1018.9 hPa 14.99 mm - - -
1788525047 33.89° C 38% 1018.8 hPa 14.99 mm - - -
1788524747 33.89° C 38% 1018.8 hPa 14.48 mm - - -
1788524448 33.89° C 36% 1019.1 hPa 22.61 mm - - -
1788524148 34.44° C 38% 1019.1 hPa 24.89 mm - - -
1788523847 34.44° C 37% 1019.1 hPa 24.89 mm - - -
1788523548 34.44° C 38% 1019.1 hPa 25.4 mm - - -
1788523248 35° C 36% 1019.2 hPa 24.38 mm - - -
1788522948 35° C 38% 1019.4 hPa 28.45 mm - - -
1788522348 35° C 38% 1019.6 hPa 23.88 mm - - -
1788521748 35° C 37% 1019.7 hPa 25.91 mm - - -
1788521448 35° C 38% 1019.8 hPa 25.91 mm - - -
1788521148 35° C 39% 1019.8 hPa 20.83 mm - - -
1788520848 35° C 39% 1019.9 hPa 21.59 mm - - -

* Rain latest hour (hover to see other rain measurements)
** Current wind speed in m/s (hover to see current wind gust speed)